Time,TemperatureF,DewpointF,PressureIn,WindDirection,WindDirectionDegrees,WindSpeedMPH,WindSpeedGustMPH,Humidity,HourlyPrecipIn,Conditions,Clouds,dailyrainin,SoftwareType,DateUTC
2013-02-11 00:00:00,70.5,62.2,30.16,ESE,111,0.0,4.0,75,0.00,,---,0.00,VWS V14.01,2013-02-11 05:00:00,
2013-02-11 00:05:00,70.4,62.1,30.15,ESE,111,1.0,3.0,75,0.00,,---,0.00,VWS V14.01,2013-02-11 05:05:00,
2013-02-11 00:10:00,70.2,61.9,30.15,East,92,1.0,5.0,75,0.00,,---,0.00,VWS V14.01,2013-02-11 05:10:00,
2013-02-11 00:15:00,70.2,61.9,30.15,ESE,108,0.0,5.0,75,0.00,,---,0.00,VWS V14.01,2013-02-11 05:15:00,
2013-02-11 00:20:00,70.3,62.0,30.16,ESE,105,3.0,5.0,75,0.00,,---,0.00,VWS V14.01,2013-02-11 05:20:00,
2013-02-11 00:25:00,70.5,62.6,30.15,ESE,115,3.0,9.0,76,0.00,,---,0.00,VWS V14.01,2013-02-11 05:25:00,
2013-02-11 00:30:00,70.6,62.7,30.16,ESE,115,3.0,9.0,76,0.00,,---,0.00,VWS V14.01,2013-02-11 05:30:00,
2013-02-11 00:35:00,70.6,63.0,30.16,ESE,108,0.0,3.0,77,0.00,,---,0.00,VWS V14.01,2013-02-11 05:35:00,
2013-02-11 00:40:00,70.6,62.7,30.15,ESE,116,2.0,3.0,76,0.00,,---,0.00,VWS V14.01,2013-02-11 05:40:00,
2013-02-11 00:45:00,70.6,62.7,30.15,ESE,113,1.0,3.0,76,0.00,,---,0.00,VWS V14.01,2013-02-11 05:45:00,
2013-02-11 00:50:00,70.4,62.5,30.15,SE,126,2.0,3.0,76,0.00,,---,0.00,VWS V14.01,2013-02-11 05:50:00,
2013-02-11 00:55:00,70.3,62.4,30.15,ESE,109,1.0,3.0,76,0.00,,---,0.00,VWS V14.01,2013-02-11 05:55:00,
2013-02-11 01:00:00,70.3,62.4,30.15,SE,143,1.0,2.0,76,0.00,,---,0.00,VWS V14.01,2013-02-11 06:00:00,
2013-02-11 01:05:00,70.2,62.3,30.15,ESE,104,2.0,4.0,76,0.00,,---,0.00,VWS V14.01,2013-02-11 06:05:00,
2013-02-11 01:10:00,70.1,62.2,30.15,ESE,121,0.0,5.0,76,0.00,,---,0.00,VWS V14.01,2013-02-11 06:10:00,
2013-02-11 01:15:00,69.9,62.0,30.15,SE,128,1.0,5.0,76,0.00,,---,0.00,VWS V14.01,2013-02-11 06:15:00,
2013-02-11 01:20:00,69.7,61.8,30.15,SE,131,0.0,5.0,76,0.00,,---,0.00,VWS V14.01,2013-02-11 06:20:00,
2013-02-11 01:25:00,69.5,61.6,30.14,ESE,117,1.0,5.0,76,0.00,,---,0.00,VWS V14.01,2013-02-11 06:25:00,
2013-02-11 01:30:00,69.4,61.9,30.14,SSE,165,0.0,5.0,77,0.00,,---,0.00,VWS V14.01,2013-02-11 06:30:00,
2013-02-11 01:35:00,69.1,61.6,30.14,SSE,157,0.0,1.0,77,0.00,,---,0.00,VWS V14.01,2013-02-11 06:35:00,
2013-02-11 01:40:00,68.8,61.3,30.14,SSE,157,0.0,1.0,77,0.00,,---,0.00,VWS V14.01,2013-02-11 06:40:00,
2013-02-11 01:45:00,68.6,61.5,30.14,SSE,157,0.0,2.0,78,0.00,,---,0.00,VWS V14.01,2013-02-11 06:45:00,
2013-02-11 01:50:00,68.4,61.3,30.14,SSE,157,0.0,2.0,78,0.00,,---,0.00,VWS V14.01,2013-02-11 06:50:00,
2013-02-11 01:55:00,68.2,61.5,30.14,SSE,157,0.0,2.0,79,0.00,,---,0.00,VWS V14.01,2013-02-11 06:55:00,
2013-02-11 02:00:00,68.0,61.2,30.14,SSE,157,0.0,2.0,79,0.00,,---,0.00,VWS V14.01,2013-02-11 07:00:00,
2013-02-11 02:05:00,67.7,61.3,30.14,SSE,157,0.0,0.0,80,0.00,,---,0.00,VWS V14.01,2013-02-11 07:05:00,
2013-02-11 02:10:00,67.5,61.1,30.14,SSE,157,0.0,0.0,80,0.00,,---,0.00,VWS V14.01,2013-02-11 07:10:00,
2013-02-11 02:15:00,67.2,61.2,30.14,SSE,157,0.0,0.0,81,0.00,,---,0.00,VWS V14.01,2013-02-11 07:15:00,
2013-02-11 02:20:00,66.8,60.8,30.14,SSE,157,0.0,0.0,81,0.00,,---,0.00,VWS V14.01,2013-02-11 07:20:00,
2013-02-11 02:25:00,66.6,60.9,30.14,SSE,157,0.0,0.0,82,0.00,,---,0.00,VWS V14.01,2013-02-11 07:25:00,
2013-02-11 02:30:00,66.3,61.0,30.14,SSE,157,0.0,0.0,83,0.00,,---,0.00,VWS V14.01,2013-02-11 07:30:00,
2013-02-11 02:35:00,65.9,60.9,30.14,SSE,157,0.0,0.0,84,0.00,,---,0.00,VWS V14.01,2013-02-11 07:35:00,
2013-02-11 02:40:00,65.6,60.6,30.13,SSE,157,0.0,0.0,84,0.00,,---,0.00,VWS V14.01,2013-02-11 07:40:00,
2013-02-11 02:45:00,65.3,60.7,30.13,SSE,157,0.0,0.0,85,0.00,,---,0.00,VWS V14.01,2013-02-11 07:45:00,
2013-02-11 02:50:00,65.0,60.4,30.13,SSE,157,0.0,0.0,85,0.00,,---,0.00,VWS V14.01,2013-02-11 07:50:00,
2013-02-11 02:55:00,64.7,60.4,30.13,SSE,157,0.0,0.0,86,0.00,,---,0.00,VWS V14.01,2013-02-11 07:55:00,
2013-02-11 03:00:00,64.5,60.2,30.13,SSE,157,0.0,0.0,86,0.00,,---,0.00,VWS V14.01,2013-02-11 08:00:00,
2013-02-11 03:05:00,64.2,60.3,30.13,SSE,157,0.0,0.0,87,0.00,,---,0.00,VWS V14.01,2013-02-11 08:05:00,
2013-02-11 03:10:00,64.0,60.1,30.13,SSE,157,0.0,0.0,87,0.00,,---,0.00,VWS V14.01,2013-02-11 08:10:00,
2013-02-11 03:15:00,63.8,60.2,30.13,SSE,157,0.0,0.0,88,0.00,,---,0.00,VWS V14.01,2013-02-11 08:15:00,
2013-02-11 03:20:00,63.5,59.9,30.12,SSE,157,0.0,0.0,88,0.00,,---,0.00,VWS V14.01,2013-02-11 08:20:00,
2013-02-11 03:25:00,63.3,59.7,30.13,SSE,157,0.0,0.0,88,0.00,,---,0.00,VWS V14.01,2013-02-11 08:25:00,
2013-02-11 03:30:00,63.2,59.9,30.13,SSE,157,0.0,0.0,89,0.00,,---,0.00,VWS V14.01,2013-02-11 08:30:00,
2013-02-11 03:35:00,63.0,59.7,30.13,SSE,157,0.0,0.0,89,0.00,,---,0.00,VWS V14.01,2013-02-11 08:35:00,
2013-02-11 03:40:00,62.8,59.5,30.13,SSE,157,0.0,0.0,89,0.00,,---,0.00,VWS V14.01,2013-02-11 08:40:00,
2013-02-11 03:45:00,62.7,59.7,30.12,SSE,157,0.0,0.0,90,0.00,,---,0.00,VWS V14.01,2013-02-11 08:45:00,
2013-02-11 03:50:00,62.5,59.5,30.12,SSE,157,0.0,0.0,90,0.00,,---,0.00,VWS V14.01,2013-02-11 08:50:00,
2013-02-11 03:55:00,62.4,59.4,30.12,SSE,157,0.0,0.0,90,0.00,,---,0.00,VWS V14.01,2013-02-11 08:55:00,
2013-02-11 04:00:00,62.2,59.2,30.12,SSE,157,0.0,0.0,90,0.00,,---,0.00,VWS V14.01,2013-02-11 09:00:00,
2013-02-11 04:05:00,62.0,59.0,30.12,SSE,157,0.0,0.0,90,0.00,,---,0.00,VWS V14.01,2013-02-11 09:05:00,
2013-02-11 04:10:00,61.8,59.2,30.12,SSE,157,0.0,0.0,91,0.00,,---,0.00,VWS V14.01,2013-02-11 09:10:00,
2013-02-11 04:15:00,61.7,59.0,30.12,SSE,157,0.0,0.0,91,0.00,,---,0.00,VWS V14.01,2013-02-11 09:15:00,
2013-02-11 04:20:00,61.5,58.8,30.12,SSE,157,0.0,0.0,91,0.00,,---,0.00,VWS V14.01,2013-02-11 09:20:00,
2013-02-11 04:25:00,61.4,58.8,30.12,SSE,157,0.0,0.0,91,0.00,,---,0.00,VWS V14.01,2013-02-11 09:25:00,
2013-02-11 04:30:00,61.3,59.0,30.12,SSE,157,0.0,0.0,92,0.00,,---,0.00,VWS V14.01,2013-02-11 09:30:00,
2013-02-11 04:35:00,61.1,58.8,30.12,SSE,157,0.0,0.0,92,0.00,,---,0.00,VWS V14.01,2013-02-11 09:35:00,
2013-02-11 04:40:00,61.1,58.8,30.12,SSE,157,0.0,0.0,92,0.00,,---,0.00,VWS V14.01,2013-02-11 09:40:00,
2013-02-11 04:45:00,61.0,58.7,30.12,SSE,157,0.0,0.0,92,0.00,,---,0.00,VWS V14.01,2013-02-11 09:45:00,
2013-02-11 04:50:00,60.9,58.6,30.12,SSE,157,0.0,0.0,92,0.00,,---,0.00,VWS V14.01,2013-02-11 09:50:00,
2013-02-11 04:55:00,60.8,58.5,30.12,SSE,157,0.0,0.0,92,0.00,,---,0.00,VWS V14.01,2013-02-11 09:55:00,
2013-02-11 05:00:00,60.7,58.7,30.12,SSE,157,0.0,0.0,93,0.00,,---,0.00,VWS V14.01,2013-02-11 10:00:00,
2013-02-11 05:05:00,60.7,58.7,30.12,SSE,157,0.0,0.0,93,0.00,,---,0.00,VWS V14.01,2013-02-11 10:05:00,
2013-02-11 05:10:00,60.7,58.7,30.12,SSE,157,0.0,0.0,93,0.00,,---,0.00,VWS V14.01,2013-02-11 10:10:00,
2013-02-11 05:15:00,60.9,59.2,30.12,SSE,157,0.0,0.0,94,0.00,,---,0.00,VWS V14.01,2013-02-11 10:15:00,
2013-02-11 05:20:00,61.0,59.0,30.12,SSE,157,0.0,0.0,93,0.00,,---,0.00,VWS V14.01,2013-02-11 10:20:00,
2013-02-11 05:25:00,61.2,59.5,30.11,SSE,157,0.0,0.0,94,0.00,,---,0.00,VWS V14.01,2013-02-11 10:25:00,
2013-02-11 05:30:00,61.5,59.8,30.11,SSE,157,0.0,0.0,94,0.00,,---,0.00,VWS V14.01,2013-02-11 10:30:00,
2013-02-11 05:34:00,62.0,60.0,30.11,SSE,157,0.0,1.0,93,0.00,,---,0.00,VWS V14.01,2013-02-11 10:34:00,
2013-02-11 05:39:00,62.6,60.2,30.11,SSE,157,0.0,1.0,92,0.00,,---,0.00,VWS V14.01,2013-02-11 10:39:00,
2013-02-11 05:44:00,62.9,60.2,30.12,SSE,157,0.0,1.0,91,0.00,,---,0.00,VWS V14.01,2013-02-11 10:44:00,
2013-02-11 05:49:00,63.1,60.4,30.12,SSE,157,0.0,1.0,91,0.00,,---,0.00,VWS V14.01,2013-02-11 10:49:00,
2013-02-11 05:54:00,63.2,60.2,30.12,SSE,157,0.0,1.0,90,0.00,,---,0.00,VWS V14.01,2013-02-11 10:54:00,
2013-02-11 05:59:00,63.1,60.1,30.12,SSE,157,0.0,1.0,90,0.00,,---,0.00,VWS V14.01,2013-02-11 10:59:00,
2013-02-11 06:00:00,61.5,59.2,30.14,SSE,157,0.0,0.0,92,0.00,,---,0.00,VWS V14.01,2013-02-11 11:00:00,
2013-02-11 06:04:00,62.9,59.9,30.12,SSE,157,0.0,0.0,90,0.00,,---,0.00,VWS V14.01,2013-02-11 11:04:00,
2013-02-11 06:09:00,62.9,59.9,30.13,SSE,157,0.0,0.0,90,0.00,,---,0.00,VWS V14.01,2013-02-11 11:09:00,
2013-02-11 06:14:00,62.7,59.7,30.13,SSE,157,0.0,0.0,90,0.00,,---,0.00,VWS V14.01,2013-02-11 11:14:00,
2013-02-11 06:19:00,62.5,59.8,30.14,SSE,157,0.0,0.0,91,0.00,,---,0.00,VWS V14.01,2013-02-11 11:19:00,
2013-02-11 06:24:00,62.3,59.6,30.13,SSE,157,0.0,0.0,91,0.00,,---,0.00,VWS V14.01,2013-02-11 11:24:00,
2013-02-11 06:29:00,62.1,59.5,30.13,SSE,157,0.0,0.0,91,0.00,,---,0.00,VWS V14.01,2013-02-11 11:29:00,
2013-02-11 06:30:00,61.6,59.9,30.15,SSE,157,0.0,0.0,94,0.00,,---,0.00,VWS V14.01,2013-02-11 11:30:00,
2013-02-11 06:34:00,61.9,59.2,30.13,SSE,157,0.0,0.0,91,0.00,,---,0.00,VWS V14.01,2013-02-11 11:34:00,
2013-02-11 06:39:00,61.8,59.5,30.13,SSE,157,0.0,0.0,92,0.00,,---,0.00,VWS V14.01,2013-02-11 11:39:00,
2013-02-11 06:44:00,61.8,59.5,30.14,SSE,157,0.0,0.0,92,0.00,,---,0.00,VWS V14.01,2013-02-11 11:44:00,
2013-02-11 06:49:00,61.7,59.4,30.14,SSE,157,0.0,0.0,92,0.00,,---,0.00,VWS V14.01,2013-02-11 11:49:00,
2013-02-11 06:54:00,61.6,59.3,30.14,SSE,157,0.0,0.0,92,0.00,,---,0.00,VWS V14.01,2013-02-11 11:54:00,
2013-02-11 06:59:00,61.5,59.2,30.14,SSE,157,0.0,0.0,92,0.00,,---,0.00,VWS V14.01,2013-02-11 11:59:00,
2013-02-11 07:00:00,63.6,62.2,30.16,SSE,157,0.0,0.0,95,0.00,,---,0.00,VWS V14.01,2013-02-11 12:00:00,
2013-02-11 07:04:00,61.4,59.1,30.14,SSE,157,0.0,0.0,92,0.00,,---,0.00,VWS V14.01,2013-02-11 12:04:00,
2013-02-11 07:09:00,61.4,59.4,30.14,SSE,157,0.0,0.0,93,0.00,,---,0.00,VWS V14.01,2013-02-11 12:09:00,
2013-02-11 07:14:00,61.4,59.4,30.14,SSE,157,0.0,0.0,93,0.00,,---,0.00,VWS V14.01,2013-02-11 12:14:00,
2013-02-11 07:19:00,61.4,59.4,30.15,SSE,157,0.0,0.0,93,0.00,,---,0.00,VWS V14.01,2013-02-11 12:19:00,
2013-02-11 07:24:00,61.5,59.5,30.15,SSE,157,0.0,0.0,93,0.00,,---,0.00,VWS V14.01,2013-02-11 12:24:00,
2013-02-11 07:29:00,61.6,59.9,30.15,SSE,157,0.0,0.0,94,0.00,,---,0.00,VWS V14.01,2013-02-11 12:29:00,
2013-02-11 07:30:00,71.7,63.7,30.16,ESE,123,4.0,7.0,76,0.00,,---,0.00,VWS V14.01,2013-02-11 12:30:00,
2013-02-11 07:34:00,61.8,60.1,30.16,SSE,157,0.0,0.0,94,0.00,,---,0.00,VWS V14.01,2013-02-11 12:34:00,
2013-02-11 07:39:00,62.0,60.3,30.16,SSE,157,0.0,0.0,94,0.00,,---,0.00,VWS V14.01,2013-02-11 12:39:00,
2013-02-11 07:44:00,62.2,60.5,30.16,SSE,157,0.0,0.0,94,0.00,,---,0.00,VWS V14.01,2013-02-11 12:44:00,
2013-02-11 07:49:00,62.6,60.8,30.16,SSE,157,0.0,0.0,94,0.00,,---,0.00,VWS V14.01,2013-02-11 12:49:00,
2013-02-11 07:54:00,63.0,61.5,30.16,SSE,157,0.0,0.0,95,0.00,,---,0.00,VWS V14.01,2013-02-11 12:54:00,
2013-02-11 07:59:00,63.6,62.2,30.16,SSE,157,0.0,0.0,95,0.00,,---,0.00,VWS V14.01,2013-02-11 12:59:00,
2013-02-11 08:00:00,74.2,63.4,30.17,SSE,153,4.0,9.0,69,0.00,,---,0.00,VWS V14.01,2013-02-11 13:00:00,
2013-02-11 08:04:00,64.2,62.7,30.16,SSE,157,0.0,0.0,95,0.00,,---,0.00,VWS V14.01,2013-02-11 13:04:00,
2013-02-11 08:09:00,65.4,63.3,30.16,SSE,157,0.0,0.0,93,0.00,,---,0.00,VWS V14.01,2013-02-11 13:09:00,
2013-02-11 08:14:00,67.1,63.8,30.16,SE,140,3.0,3.0,89,0.00,,---,0.00,VWS V14.01,2013-02-11 13:14:00,
2013-02-11 08:19:00,69.2,63.8,30.16,SE,125,1.0,6.0,83,0.00,,---,0.00,VWS V14.01,2013-02-11 13:19:00,
2013-02-11 08:25:00,70.6,63.8,30.16,SE,145,2.0,6.0,79,0.00,,---,0.00,VWS V14.01,2013-02-11 13:25:00,
2013-02-11 08:30:00,71.7,63.7,30.16,ESE,107,5.0,7.0,76,0.00,,---,0.00,VWS V14.01,2013-02-11 13:30:00,
2013-02-11 08:35:00,72.4,63.7,30.16,East,85,2.0,8.0,74,0.00,,---,0.00,VWS V14.01,2013-02-11 13:35:00,
2013-02-11 08:40:00,72.9,63.3,30.16,SE,144,2.0,8.0,72,0.00,,---,0.00,VWS V14.01,2013-02-11 13:40:00,
2013-02-11 08:45:00,73.3,63.3,30.17,East,88,3.0,8.0,71,0.00,,---,0.00,VWS V14.01,2013-02-11 13:45:00,
2013-02-11 08:50:00,73.8,63.4,30.17,ESE,120,7.0,9.0,70,0.00,,---,0.00,VWS V14.01,2013-02-11 13:50:00,
2013-02-11 08:55:00,73.9,63.1,30.17,SE,137,3.0,9.0,69,0.00,,---,0.00,VWS V14.01,2013-02-11 13:55:00,
2013-02-11 09:00:00,74.2,63.4,30.17,SSE,153,4.0,9.0,69,0.00,,---,0.00,VWS V14.01,2013-02-11 14:00:00,
2013-02-11 09:05:00,74.4,63.6,30.17,SE,135,6.0,8.0,69,0.00,,---,0.00,VWS V14.01,2013-02-11 14:05:00,
2013-02-11 09:10:00,74.4,63.6,30.17,SE,142,4.0,11.0,69,0.00,,---,0.00,VWS V14.01,2013-02-11 14:10:00,
2013-02-11 09:15:00,74.6,64.2,30.17,SE,135,2.0,11.0,70,0.00,,---,0.00,VWS V14.01,2013-02-11 14:15:00,
2013-02-11 09:20:00,75.1,64.7,30.17,South,183,4.0,11.0,70,0.00,,---,0.00,VWS V14.01,2013-02-11 14:20:00,
2013-02-11 09:25:00,75.3,64.0,30.17,South,178,5.0,11.0,68,0.00,,---,0.00,VWS V14.01,2013-02-11 14:25:00,
2013-02-11 09:30:00,75.1,63.4,30.17,ESE,104,3.0,11.0,67,0.00,,---,0.00,VWS V14.01,2013-02-11 14:30:00,
2013-02-11 09:35:00,75.3,64.0,30.17,ESE,121,8.0,9.0,68,0.00,,---,0.00,VWS V14.01,2013-02-11 14:35:00,
2013-02-11 09:40:00,75.5,64.2,30.17,East,90,7.0,9.0,68,0.00,,---,0.00,VWS V14.01,2013-02-11 14:40:00,
2013-02-11 09:45:00,75.7,63.5,30.17,East,81,2.0,9.0,66,0.00,,---,0.00,VWS V14.01,2013-02-11 14:45:00,
2013-02-11 09:50:00,76.0,63.8,30.17,ESE,111,1.0,10.0,66,0.00,,---,0.00,VWS V14.01,2013-02-11 14:50:00,
2013-02-11 09:55:00,76.1,64.4,30.17,East,96,7.0,10.0,67,0.00,,---,0.00,VWS V14.01,2013-02-11 14:55:00,
2013-02-11 10:00:00,76.1,64.4,30.17,SE,130,3.0,10.0,67,0.00,,---,0.00,VWS V14.01,2013-02-11 15:00:00,
2013-02-11 10:05:00,76.2,64.0,30.17,ESE,115,7.0,10.0,66,0.00,,---,0.00,VWS V14.01,2013-02-11 15:05:00,
2013-02-11 10:10:00,75.9,64.2,30.17,ENE,57,1.0,10.0,67,0.00,,---,0.00,VWS V14.01,2013-02-11 15:10:00,
2013-02-11 10:15:00,76.7,63.6,30.18,SE,136,8.0,10.0,64,0.00,,---,0.00,VWS V14.01,2013-02-11 15:15:00,
2013-02-11 10:20:00,76.6,64.4,30.18,SE,125,4.0,10.0,66,0.00,,---,0.00,VWS V14.01,2013-02-11 15:20:00,
2013-02-11 10:25:00,76.2,63.6,30.17,SE,128,5.0,11.0,65,0.00,,---,0.00,VWS V14.01,2013-02-11 15:25:00,
2013-02-11 10:30:00,76.5,64.7,30.17,South,184,4.0,11.0,67,0.00,,---,0.00,VWS V14.01,2013-02-11 15:30:00,
2013-02-11 10:35:00,76.5,63.9,30.18,ESE,119,2.0,9.0,65,0.00,,---,0.00,VWS V14.01,2013-02-11 15:35:00,
2013-02-11 10:40:00,76.4,64.6,30.17,SSE,156,6.0,9.0,67,0.00,,---,0.00,VWS V14.01,2013-02-11 15:40:00,
2013-02-11 10:45:00,76.8,64.2,30.17,ESE,104,5.0,13.0,65,0.00,,---,0.00,VWS V14.01,2013-02-11 15:45:00,
2013-02-11 10:50:00,77.0,64.3,30.17,SE,136,5.0,13.0,65,0.00,,---,0.00,VWS V14.01,2013-02-11 15:50:00,
2013-02-11 10:55:00,77.0,64.3,30.17,South,184,4.0,13.0,65,0.00,,---,0.00,VWS V14.01,2013-02-11 15:55:00,
2013-02-11 11:00:00,76.9,64.2,30.17,East,86,7.0,13.0,65,0.00,,---,0.00,VWS V14.01,2013-02-11 16:00:00,
2013-02-11 11:05:00,76.9,64.2,30.17,NE,38,4.0,9.0,65,0.00,,---,0.00,VWS V14.01,2013-02-11 16:05:00,
2013-02-11 11:10:00,77.6,64.9,30.17,ESE,115,3.0,10.0,65,0.00,,---,0.00,VWS V14.01,2013-02-11 16:10:00,
2013-02-11 11:15:00,77.9,65.2,30.17,ESE,119,10.0,10.0,65,0.00,,---,0.00,VWS V14.01,2013-02-11 16:15:00,
2013-02-11 11:20:00,77.6,64.5,30.17,SE,134,2.0,10.0,64,0.00,,---,0.00,VWS V14.01,2013-02-11 16:20:00,
2013-02-11 11:25:00,76.9,64.7,30.17,ENE,78,2.0,10.0,66,0.00,,---,0.00,VWS V14.01,2013-02-11 16:25:00,
2013-02-11 11:30:00,77.2,65.0,30.17,ESE,113,10.0,10.0,66,0.00,,---,0.00,VWS V14.01,2013-02-11 16:30:00,
2013-02-11 11:35:00,77.0,64.8,30.17,SE,144,6.0,10.0,66,0.00,,---,0.00,VWS V14.01,2013-02-11 16:35:00,
2013-02-11 11:40:00,77.2,65.0,30.17,ESE,108,7.0,11.0,66,0.00,,---,0.00,VWS V14.01,2013-02-11 16:40:00,
2013-02-11 11:45:00,76.4,64.2,30.17,East,85,3.0,11.0,66,0.00,,---,0.00,VWS V14.01,2013-02-11 16:45:00,
2013-02-11 11:50:00,76.6,65.3,30.16,East,84,3.0,11.0,68,0.00,,---,0.00,VWS V14.01,2013-02-11 16:50:00,
2013-02-11 11:55:00,76.5,65.2,30.16,SE,134,1.0,11.0,68,0.00,,---,0.00,VWS V14.01,2013-02-11 16:55:00,
2013-02-11 12:00:00,76.5,65.2,30.16,ESE,109,7.0,11.0,68,0.00,,---,0.00,VWS V14.01,2013-02-11 17:00:00,
2013-02-11 12:05:00,77.0,65.2,30.16,SSW,199,5.0,8.0,67,0.00,,---,0.00,VWS V14.01,2013-02-11 17:05:00,
2013-02-11 12:10:00,77.3,65.5,30.16,SSE,152,5.0,8.0,67,0.00,,---,0.00,VWS V14.01,2013-02-11 17:10:00,
2013-02-11 12:15:00,77.0,64.8,30.16,SE,129,1.0,8.0,66,0.00,,---,0.00,VWS V14.01,2013-02-11 17:15:00,
2013-02-11 12:20:00,76.8,64.6,30.16,East,92,2.0,10.0,66,0.00,,---,0.00,VWS V14.01,2013-02-11 17:20:00,
2013-02-11 12:25:00,76.5,65.2,30.16,ESE,112,5.0,10.0,68,0.00,,---,0.00,VWS V14.01,2013-02-11 17:25:00,
2013-02-11 12:30:00,76.0,64.7,30.15,East,82,6.0,10.0,68,0.00,,---,0.00,VWS V14.01,2013-02-11 17:30:00,
2013-02-11 12:35:00,75.6,64.7,30.15,SE,136,2.0,9.0,69,0.00,,---,0.00,VWS V14.01,2013-02-11 17:35:00,
2013-02-11 12:40:00,76.0,65.5,30.15,ESE,105,3.0,9.0,70,0.00,,---,0.00,VWS V14.01,2013-02-11 17:40:00,
2013-02-11 12:45:00,76.7,66.2,30.14,East,98,3.0,11.0,70,0.00,,---,0.00,VWS V14.01,2013-02-11 17:45:00,
2013-02-11 12:50:00,77.2,65.4,30.14,SSE,159,5.0,11.0,67,0.00,,---,0.00,VWS V14.01,2013-02-11 17:50:00,
2013-02-11 12:55:00,77.0,65.6,30.14,SSE,153,1.0,11.0,68,0.00,,---,0.00,VWS V14.01,2013-02-11 17:55:00,
2013-02-11 13:00:00,77.3,65.5,30.14,South,183,1.0,11.0,67,0.00,,---,0.00,VWS V14.01,2013-02-11 18:00:00,
2013-02-11 13:05:00,77.7,66.3,30.13,SE,130,3.0,9.0,68,0.00,,---,0.00,VWS V14.01,2013-02-11 18:05:00,
2013-02-11 13:10:00,78.2,65.9,30.13,East,90,2.0,9.0,66,0.00,,---,0.00,VWS V14.01,2013-02-11 18:10:00,
2013-02-11 13:15:00,78.4,65.7,30.13,ESE,119,2.0,10.0,65,0.00,,---,0.00,VWS V14.01,2013-02-11 18:15:00,
2013-02-11 13:20:00,78.0,65.7,30.13,South,182,2.0,10.0,66,0.00,,---,0.00,VWS V14.01,2013-02-11 18:20:00,
2013-02-11 13:25:00,77.5,65.7,30.13,SSE,149,6.0,10.0,67,0.00,,---,0.00,VWS V14.01,2013-02-11 18:25:00,
2013-02-11 13:30:00,77.6,65.8,30.12,ESE,115,9.0,10.0,67,0.00,,---,0.00,VWS V14.01,2013-02-11 18:30:00,
2013-02-11 13:35:00,77.7,65.9,30.12,SSW,197,5.0,9.0,67,0.00,,---,0.00,VWS V14.01,2013-02-11 18:35:00,
2013-02-11 13:40:00,78.2,65.9,30.12,SE,125,4.0,9.0,66,0.00,,---,0.00,VWS V14.01,2013-02-11 18:40:00,
2013-02-11 13:45:00,77.8,66.0,30.12,SE,128,1.0,10.0,67,0.00,,---,0.00,VWS V14.01,2013-02-11 18:45:00,
2013-02-11 13:50:00,77.6,65.3,30.11,SSE,155,2.0,10.0,66,0.00,,---,0.00,VWS V14.01,2013-02-11 18:50:00,
2013-02-11 13:55:00,77.4,65.6,30.11,ESE,102,4.0,10.0,67,0.00,,---,0.00,VWS V14.01,2013-02-11 18:55:00,
2013-02-11 13:59:00,77.1,65.3,30.11,ESE,117,0.0,10.0,67,0.00,,---,0.00,VWS V14.01,2013-02-11 18:59:00,
2013-02-11 14:00:00,76.8,65.4,30.09,ESE,121,5.0,11.0,68,0.00,,---,0.00,VWS V14.01,2013-02-11 19:00:00,
2013-02-11 14:04:00,77.6,66.2,30.11,SE,145,7.0,9.0,68,0.00,,---,0.00,VWS V14.01,2013-02-11 19:04:00,
2013-02-11 14:09:00,78.2,65.9,30.10,East,86,2.0,9.0,66,0.00,,---,0.00,VWS V14.01,2013-02-11 19:09:00,
2013-02-11 14:14:00,78.3,65.6,30.11,SE,126,4.0,11.0,65,0.00,,---,0.00,VWS V14.01,2013-02-11 19:14:00,
2013-02-11 14:19:00,77.6,65.3,30.10,SE,133,3.0,11.0,66,0.00,,---,0.00,VWS V14.01,2013-02-11 19:19:00,
2013-02-11 14:24:00,76.9,65.5,30.10,East,88,2.0,11.0,68,0.00,,---,0.00,VWS V14.01,2013-02-11 19:24:00,
2013-02-11 14:29:00,76.9,65.5,30.10,East,96,3.0,11.0,68,0.00,,---,0.00,VWS V14.01,2013-02-11 19:29:00,
2013-02-11 14:30:00,77.2,65.0,30.09,SE,124,9.0,11.0,66,0.00,,---,0.00,VWS V14.01,2013-02-11 19:30:00,
2013-02-11 14:34:00,77.0,65.6,30.10,SSE,158,4.0,11.0,68,0.00,,---,0.00,VWS V14.01,2013-02-11 19:34:00,
2013-02-11 14:39:00,77.0,65.6,30.10,ESE,109,4.0,11.0,68,0.00,,---,0.00,VWS V14.01,2013-02-11 19:39:00,
2013-02-11 14:44:00,77.0,65.6,30.10,ESE,107,4.0,11.0,68,0.00,,---,0.00,VWS V14.01,2013-02-11 19:44:00,
2013-02-11 14:49:00,77.3,65.9,30.10,ESE,117,8.0,11.0,68,0.00,,---,0.00,VWS V14.01,2013-02-11 19:49:00,
2013-02-11 14:54:00,77.1,65.3,30.10,SE,142,0.0,11.0,67,0.00,,---,0.00,VWS V14.01,2013-02-11 19:54:00,
2013-02-11 14:59:00,76.8,65.4,30.09,East,99,6.0,11.0,68,0.00,,---,0.00,VWS V14.01,2013-02-11 19:59:00,
2013-02-11 15:00:00,76.6,64.8,30.08,SSE,148,8.0,11.0,67,0.00,,---,0.00,VWS V14.01,2013-02-11 20:00:00,
2013-02-11 15:04:00,76.8,65.4,30.09,SE,146,5.0,10.0,68,0.00,,---,0.00,VWS V14.01,2013-02-11 20:04:00,
2013-02-11 15:09:00,77.0,65.2,30.09,East,99,5.0,10.0,67,0.00,,---,0.00,VWS V14.01,2013-02-11 20:09:00,
2013-02-11 15:14:00,77.1,65.3,30.09,SE,137,4.0,10.0,67,0.00,,---,0.00,VWS V14.01,2013-02-11 20:14:00,
2013-02-11 15:19:00,76.8,65.0,30.09,ESE,105,7.0,10.0,67,0.00,,---,0.00,VWS V14.01,2013-02-11 20:19:00,
2013-02-11 15:24:00,76.9,65.1,30.09,SSE,149,6.0,11.0,67,0.00,,---,0.00,VWS V14.01,2013-02-11 20:24:00,
2013-02-11 15:29:00,77.2,65.0,30.09,SE,138,4.0,11.0,66,0.00,,---,0.00,VWS V14.01,2013-02-11 20:29:00,
2013-02-11 15:30:00,76.1,65.2,30.08,SE,140,0.0,9.0,69,0.00,,---,0.00,VWS V14.01,2013-02-11 20:30:00,
2013-02-11 15:34:00,76.7,64.9,30.09,SSE,165,3.0,11.0,67,0.00,,---,0.00,VWS V14.01,2013-02-11 20:34:00,
2013-02-11 15:39:00,76.7,64.9,30.09,ESE,119,4.0,11.0,67,0.00,,---,0.00,VWS V14.01,2013-02-11 20:39:00,
2013-02-11 15:44:00,76.7,64.9,30.08,ESE,123,5.0,11.0,67,0.00,,---,0.00,VWS V14.01,2013-02-11 20:44:00,
2013-02-11 15:49:00,76.6,64.8,30.08,SE,125,2.0,11.0,67,0.00,,---,0.00,VWS V14.01,2013-02-11 20:49:00,
2013-02-11 15:54:00,76.7,65.3,30.08,East,94,5.0,11.0,68,0.00,,---,0.00,VWS V14.01,2013-02-11 20:54:00,
2013-02-11 15:59:00,76.6,64.8,30.08,SE,134,5.0,11.0,67,0.00,,---,0.00,VWS V14.01,2013-02-11 20:59:00,
2013-02-11 16:00:00,75.1,64.7,30.07,ESE,102,3.0,11.0,70,0.00,,---,0.00,VWS V14.01,2013-02-11 21:00:00,
2013-02-11 16:04:00,76.3,65.0,30.08,SE,126,3.0,8.0,68,0.00,,---,0.00,VWS V14.01,2013-02-11 21:04:00,
2013-02-11 16:09:00,76.1,64.8,30.08,ESE,102,4.0,9.0,68,0.00,,---,0.00,VWS V14.01,2013-02-11 21:09:00,
2013-02-11 16:14:00,75.8,64.9,30.08,South,171,3.0,9.0,69,0.00,,---,0.00,VWS V14.01,2013-02-11 21:14:00,
2013-02-11 16:19:00,76.0,65.1,30.08,SSE,161,3.0,9.0,69,0.00,,---,0.00,VWS V14.01,2013-02-11 21:19:00,
2013-02-11 16:24:00,76.1,64.8,30.08,ESE,117,3.0,9.0,68,0.00,,---,0.00,VWS V14.01,2013-02-11 21:24:00,
2013-02-11 16:29:00,76.1,65.2,30.08,South,181,2.0,9.0,69,0.00,,---,0.00,VWS V14.01,2013-02-11 21:29:00,
2013-02-11 16:30:00,73.9,63.9,30.07,ESE,115,3.0,10.0,71,0.00,,---,0.00,VWS V14.01,2013-02-11 21:30:00,
2013-02-11 16:34:00,76.2,64.9,30.08,SE,145,7.0,8.0,68,0.00,,---,0.00,VWS V14.01,2013-02-11 21:34:00,
2013-02-11 16:39:00,75.8,64.9,30.08,ESE,115,7.0,9.0,69,0.00,,---,0.00,VWS V14.01,2013-02-11 21:39:00,
2013-02-11 16:44:00,75.7,64.8,30.08,SSE,161,3.0,9.0,69,0.00,,---,0.00,VWS V14.01,2013-02-11 21:44:00,
2013-02-11 16:49:00,75.5,64.6,30.08,ESE,122,5.0,11.0,69,0.00,,---,0.00,VWS V14.01,2013-02-11 21:49:00,
2013-02-11 16:54:00,75.2,64.3,30.08,East,84,3.0,11.0,69,0.00,,---,0.00,VWS V14.01,2013-02-11 21:54:00,
2013-02-11 16:59:00,75.1,64.7,30.07,ESE,116,5.0,11.0,70,0.00,,---,0.00,VWS V14.01,2013-02-11 21:59:00,
2013-02-11 17:00:00,72.9,63.8,30.07,SE,127,6.0,8.0,73,0.00,,---,0.00,VWS V14.01,2013-02-11 22:00:00,
2013-02-11 17:04:00,74.9,64.1,30.08,ESE,110,3.0,10.0,69,0.00,,---,0.00,VWS V14.01,2013-02-11 22:04:00,
2013-02-11 17:09:00,74.7,64.3,30.07,East,86,2.0,10.0,70,0.00,,---,0.00,VWS V14.01,2013-02-11 22:09:00,
2013-02-11 17:14:00,74.5,64.5,30.07,SE,138,1.0,10.0,71,0.00,,---,0.00,VWS V14.01,2013-02-11 22:14:00,
2013-02-11 17:19:00,74.2,64.2,30.07,ESE,113,7.0,10.0,71,0.00,,---,0.00,VWS V14.01,2013-02-11 22:19:00,
2013-02-11 17:24:00,74.1,64.1,30.07,ESE,123,5.0,10.0,71,0.00,,---,0.00,VWS V14.01,2013-02-11 22:24:00,
2013-02-11 17:29:00,73.9,63.9,30.07,East,94,7.0,10.0,71,0.00,,---,0.00,VWS V14.01,2013-02-11 22:29:00,
2013-02-11 17:30:00,72.2,63.5,30.07,ESE,113,5.0,10.0,74,0.00,,---,0.00,VWS V14.01,2013-02-11 22:30:00,
2013-02-11 17:34:00,73.7,63.3,30.07,ESE,117,5.0,8.0,70,0.00,,---,0.00,VWS V14.01,2013-02-11 22:34:00,
2013-02-11 17:39:00,73.6,63.6,30.07,SE,138,4.0,8.0,71,0.00,,---,0.00,VWS V14.01,2013-02-11 22:39:00,
2013-02-11 17:44:00,73.4,63.8,30.07,ESE,110,4.0,8.0,72,0.00,,---,0.00,VWS V14.01,2013-02-11 22:44:00,
2013-02-11 17:49:00,73.3,63.7,30.07,SSE,159,7.0,8.0,72,0.00,,---,0.00,VWS V14.01,2013-02-11 22:49:00,
2013-02-11 17:54:00,73.1,63.9,30.07,SSW,198,2.0,8.0,73,0.00,,---,0.00,VWS V14.01,2013-02-11 22:54:00,
2013-02-11 17:59:00,73.0,63.8,30.07,ESE,112,4.0,8.0,73,0.00,,---,0.00,VWS V14.01,2013-02-11 22:59:00,
2013-02-11 18:00:00,71.6,63.6,30.07,ESE,106,1.0,9.0,76,0.00,,---,0.00,VWS V14.01,2013-02-11 23:00:00,
2013-02-11 18:04:00,72.8,64.0,30.07,SE,145,6.0,6.0,74,0.00,,---,0.00,VWS V14.01,2013-02-11 23:04:00,
2013-02-11 18:09:00,72.6,63.8,30.07,ESE,106,3.0,10.0,74,0.00,,---,0.00,VWS V14.01,2013-02-11 23:09:00,
2013-02-11 18:14:00,72.5,63.8,30.07,ESE,123,0.0,10.0,74,0.00,,---,0.00,VWS V14.01,2013-02-11 23:14:00,
2013-02-11 18:19:00,72.4,63.7,30.07,SE,135,3.0,10.0,74,0.00,,---,0.00,VWS V14.01,2013-02-11 23:19:00,
2013-02-11 18:24:00,72.3,63.6,30.07,ESE,107,1.0,10.0,74,0.00,,---,0.00,VWS V14.01,2013-02-11 23:24:00,
2013-02-11 18:29:00,72.2,63.5,30.07,ESE,111,0.0,10.0,74,0.00,,---,0.00,VWS V14.01,2013-02-11 23:29:00,
2013-02-11 18:30:00,71.1,63.5,30.08,ESE,117,0.0,6.0,77,0.00,,---,0.00,VWS V14.01,2013-02-11 23:30:00,
2013-02-11 18:34:00,72.1,63.4,30.07,SE,127,2.0,9.0,74,0.00,,---,0.00,VWS V14.01,2013-02-11 23:34:00,
2013-02-11 18:39:00,72.1,63.4,30.07,East,96,1.0,9.0,74,0.00,,---,0.00,VWS V14.01,2013-02-11 23:39:00,
2013-02-11 18:44:00,72.0,63.3,30.07,SE,126,2.0,9.0,74,0.00,,---,0.00,VWS V14.01,2013-02-11 23:44:00,
2013-02-11 18:49:00,71.9,63.5,30.07,SE,131,0.0,9.0,75,0.00,,---,0.00,VWS V14.01,2013-02-11 23:49:00,
2013-02-11 18:54:00,71.7,63.4,30.08,ESE,116,2.0,9.0,75,0.00,,---,0.00,VWS V14.01,2013-02-11 23:54:00,
2013-02-11 18:59:00,71.6,63.6,30.07,ESE,106,3.0,9.0,76,0.00,,---,0.00,VWS V14.01,2013-02-11 23:59:00,
2013-02-11 19:00:00,70.2,63.8,30.09,East,95,0.0,2.0,80,0.00,,---,0.00,VWS V14.01,2013-02-12 00:00:00,
2013-02-11 19:04:00,71.5,63.2,30.08,SE,133,2.0,4.0,75,0.00,,---,0.00,VWS V14.01,2013-02-12 00:04:00,
2013-02-11 19:09:00,71.5,63.5,30.08,ESE,115,0.0,6.0,76,0.00,,---,0.00,VWS V14.01,2013-02-12 00:09:00,
2013-02-11 19:14:00,71.3,63.3,30.08,SE,130,1.0,6.0,76,0.00,,---,0.00,VWS V14.01,2013-02-12 00:14:00,
2013-02-11 19:19:00,71.3,63.3,30.08,SE,146,2.0,6.0,76,0.00,,---,0.00,VWS V14.01,2013-02-12 00:19:00,
2013-02-11 19:24:00,71.2,63.3,30.08,ESE,116,0.0,6.0,76,0.00,,---,0.00,VWS V14.01,2013-02-12 00:24:00,
2013-02-11 19:29:00,71.1,63.2,30.08,ESE,117,0.0,6.0,76,0.00,,---,0.00,VWS V14.01,2013-02-12 00:29:00,
2013-02-11 19:30:00,68.8,63.4,30.09,East,95,0.0,0.0,83,0.00,,---,0.00,VWS V14.01,2013-02-12 00:30:00,
2013-02-11 19:34:00,71.0,63.4,30.08,ESE,102,1.0,2.0,77,0.00,,---,0.00,VWS V14.01,2013-02-12 00:34:00,
2013-02-11 19:39:00,70.9,63.7,30.09,ESE,102,0.0,2.0,78,0.00,,---,0.00,VWS V14.01,2013-02-12 00:39:00,
2013-02-11 19:44:00,70.7,63.5,30.08,East,95,0.0,2.0,78,0.00,,---,0.00,VWS V14.01,2013-02-12 00:44:00,
2013-02-11 19:49:00,70.5,63.7,30.09,East,95,0.0,2.0,79,0.00,,---,0.00,VWS V14.01,2013-02-12 00:49:00,
2013-02-11 19:54:00,70.4,63.6,30.09,East,95,0.0,2.0,79,0.00,,---,0.00,VWS V14.01,2013-02-12 00:54:00,
2013-02-11 19:59:00,70.2,63.4,30.09,East,95,0.0,2.0,79,0.00,,---,0.00,VWS V14.01,2013-02-12 00:59:00,
2013-02-11 20:00:00,67.5,62.8,30.10,East,95,0.0,0.0,85,0.00,,---,0.00,VWS V14.01,2013-02-12 01:00:00,
2013-02-11 20:04:00,70.0,63.5,30.09,East,95,0.0,0.0,80,0.00,,---,0.00,VWS V14.01,2013-02-12 01:04:00,
2013-02-11 20:09:00,69.7,63.6,30.09,East,95,0.0,0.0,81,0.00,,---,0.00,VWS V14.01,2013-02-12 01:09:00,
2013-02-11 20:14:00,69.5,63.4,30.09,East,95,0.0,0.0,81,0.00,,---,0.00,VWS V14.01,2013-02-12 01:14:00,
2013-02-11 20:19:00,69.3,63.6,30.09,East,95,0.0,0.0,82,0.00,,---,0.00,VWS V14.01,2013-02-12 01:19:00,
2013-02-11 20:24:00,69.1,63.4,30.09,East,95,0.0,0.0,82,0.00,,---,0.00,VWS V14.01,2013-02-12 01:24:00,
2013-02-11 20:29:00,68.8,63.4,30.09,East,95,0.0,0.0,83,0.00,,---,0.00,VWS V14.01,2013-02-12 01:29:00,
2013-02-11 20:30:00,66.2,62.5,30.10,East,95,0.0,0.0,88,0.00,,---,0.00,VWS V14.01,2013-02-12 01:30:00,
2013-02-11 20:34:00,68.6,63.6,30.09,East,95,0.0,0.0,84,0.00,,---,0.00,VWS V14.01,2013-02-12 01:34:00,
2013-02-11 20:39:00,68.4,63.4,30.09,East,95,0.0,0.0,84,0.00,,---,0.00,VWS V14.01,2013-02-12 01:39:00,
2013-02-11 20:44:00,68.2,63.5,30.09,East,95,0.0,0.0,85,0.00,,---,0.00,VWS V14.01,2013-02-12 01:44:00,
2013-02-11 20:49:00,68.0,63.3,30.09,East,95,0.0,0.0,85,0.00,,---,0.00,VWS V14.01,2013-02-12 01:49:00,
2013-02-11 20:54:00,67.8,63.1,30.10,East,95,0.0,0.0,85,0.00,,---,0.00,VWS V14.01,2013-02-12 01:54:00,
2013-02-11 20:59:00,67.5,62.8,30.10,East,95,0.0,0.0,85,0.00,,---,0.00,VWS V14.01,2013-02-12 01:59:00,
2013-02-11 21:00:00,65.3,62.3,30.09,East,95,0.0,0.0,90,0.00,,---,0.00,VWS V14.01,2013-02-12 02:00:00,
2013-02-11 21:04:00,67.3,63.0,30.10,East,95,0.0,0.0,86,0.00,,---,0.00,VWS V14.01,2013-02-12 02:04:00,
2013-02-11 21:09:00,67.0,62.7,30.10,East,95,0.0,0.0,86,0.00,,---,0.00,VWS V14.01,2013-02-12 02:09:00,
2013-02-11 21:14:00,66.8,62.8,30.10,East,95,0.0,0.0,87,0.00,,---,0.00,VWS V14.01,2013-02-12 02:14:00,
2013-02-11 21:19:00,66.6,62.9,30.10,East,95,0.0,0.0,88,0.00,,---,0.00,VWS V14.01,2013-02-12 02:19:00,
2013-02-11 21:24:00,66.4,62.7,30.10,East,95,0.0,0.0,88,0.00,,---,0.00,VWS V14.01,2013-02-12 02:24:00,
2013-02-11 21:29:00,66.3,62.6,30.10,East,95,0.0,0.0,88,0.00,,---,0.00,VWS V14.01,2013-02-12 02:29:00,
2013-02-11 21:30:00,64.4,62.0,30.09,East,95,0.0,0.0,92,0.00,,---,0.00,VWS V14.01,2013-02-12 02:30:00,
2013-02-11 21:34:00,66.1,62.8,30.09,East,95,0.0,0.0,89,0.00,,---,0.00,VWS V14.01,2013-02-12 02:34:00,
2013-02-11 21:39:00,65.9,62.6,30.09,East,95,0.0,0.0,89,0.00,,---,0.00,VWS V14.01,2013-02-12 02:39:00,
2013-02-11 21:44:00,65.7,62.4,30.09,East,95,0.0,0.0,89,0.00,,---,0.00,VWS V14.01,2013-02-12 02:44:00,
2013-02-11 21:49:00,65.6,62.6,30.09,East,95,0.0,0.0,90,0.00,,---,0.00,VWS V14.01,2013-02-12 02:49:00,
2013-02-11 21:54:00,65.4,62.4,30.10,East,95,0.0,0.0,90,0.00,,---,0.00,VWS V14.01,2013-02-12 02:54:00,
2013-02-11 21:59:00,65.3,62.3,30.09,East,95,0.0,0.0,90,0.00,,---,0.00,VWS V14.01,2013-02-12 02:59:00,
2013-02-11 22:00:00,64.4,62.3,30.08,East,95,0.0,0.0,93,0.00,,---,0.00,VWS V14.01,2013-02-12 03:00:00,
2013-02-11 22:04:00,65.2,62.2,30.10,East,95,0.0,0.0,90,0.00,,---,0.00,VWS V14.01,2013-02-12 03:04:00,
2013-02-11 22:09:00,64.9,61.9,30.09,East,95,0.0,0.0,90,0.00,,---,0.00,VWS V14.01,2013-02-12 03:09:00,
2013-02-11 22:14:00,64.8,61.8,30.09,East,95,0.0,0.0,90,0.00,,---,0.00,VWS V14.01,2013-02-12 03:14:00,
2013-02-11 22:19:00,64.6,61.6,30.09,East,95,0.0,0.0,90,0.00,,---,0.00,VWS V14.01,2013-02-12 03:19:00,
2013-02-11 22:24:00,64.5,61.8,30.09,East,95,0.0,0.0,91,0.00,,---,0.00,VWS V14.01,2013-02-12 03:24:00,
2013-02-11 22:29:00,64.4,62.0,30.09,East,95,0.0,0.0,92,0.00,,---,0.00,VWS V14.01,2013-02-12 03:29:00,
2013-02-11 22:30:00,64.0,61.9,30.08,East,95,0.0,0.0,93,0.00,,---,0.00,VWS V14.01,2013-02-12 03:30:00,
2013-02-11 22:34:00,64.3,61.9,30.09,East,95,0.0,0.0,92,0.00,,---,0.00,VWS V14.01,2013-02-12 03:34:00,
2013-02-11 22:39:00,64.4,62.3,30.09,East,95,0.0,0.0,93,0.00,,---,0.00,VWS V14.01,2013-02-12 03:39:00,
2013-02-11 22:44:00,64.4,62.3,30.08,East,95,0.0,0.0,93,0.00,,---,0.00,VWS V14.01,2013-02-12 03:44:00,
2013-02-11 22:49:00,64.5,62.1,30.08,East,95,0.0,0.0,92,0.00,,---,0.00,VWS V14.01,2013-02-12 03:49:00,
2013-02-11 22:54:00,64.4,62.0,30.08,East,95,0.0,0.0,92,0.00,,---,0.00,VWS V14.01,2013-02-12 03:54:00,
2013-02-11 22:59:00,64.4,62.3,30.08,East,95,0.0,0.0,93,0.00,,---,0.00,VWS V14.01,2013-02-12 03:59:00,
2013-02-11 23:00:00,63.4,61.7,30.08,East,95,0.0,0.0,94,0.00,,---,0.00,VWS V14.01,2013-02-12 04:00:00,
2013-02-11 23:04:00,64.4,62.3,30.08,East,95,0.0,0.0,93,0.00,,---,0.00,VWS V14.01,2013-02-12 04:04:00,
2013-02-11 23:09:00,64.4,62.3,30.08,East,95,0.0,0.0,93,0.00,,---,0.00,VWS V14.01,2013-02-12 04:09:00,
2013-02-11 23:14:00,64.3,62.2,30.08,East,95,0.0,0.0,93,0.00,,---,0.00,VWS V14.01,2013-02-12 04:14:00,
2013-02-11 23:19:00,64.3,62.2,30.08,East,95,0.0,0.0,93,0.00,,---,0.00,VWS V14.01,2013-02-12 04:19:00,
2013-02-11 23:24:00,64.1,62.0,30.08,East,95,0.0,0.0,93,0.00,,---,0.00,VWS V14.01,2013-02-12 04:24:00,
2013-02-11 23:29:00,64.0,61.9,30.08,East,95,0.0,0.0,93,0.00,,---,0.00,VWS V14.01,2013-02-12 04:29:00,
2013-02-11 23:30:00,62.8,61.0,30.07,East,95,0.0,0.0,94,0.00,,---,0.00,VWS V14.01,2013-02-12 04:30:00,
2013-02-11 23:34:00,63.9,61.8,30.08,East,95,0.0,0.0,93,0.00,,---,0.00,VWS V14.01,2013-02-12 04:34:00,
2013-02-11 23:39:00,63.7,61.6,30.08,East,95,0.0,0.0,93,0.00,,---,0.00,VWS V14.01,2013-02-12 04:39:00,
2013-02-11 23:44:00,63.6,61.5,30.08,East,95,0.0,0.0,93,0.00,,---,0.00,VWS V14.01,2013-02-12 04:44:00,
2013-02-11 23:49:00,63.5,61.4,30.08,East,95,0.0,0.0,93,0.00,,---,0.00,VWS V14.01,2013-02-12 04:49:00,
2013-02-11 23:54:00,63.4,61.7,30.08,East,95,0.0,0.0,94,0.00,,---,0.00,VWS V14.01,2013-02-12 04:54:00,
2013-02-11 23:59:00,63.4,61.7,30.08,East,95,0.0,0.0,94,0.00,,---,0.00,VWS V14.01,2013-02-12 04:59:00,